Latest Weather Observations for Hay Point

IDQ60801

Issued at 5:35 pm EST Friday 25 April 2014 (issued every 30 minutes, with the page automatically refreshed every 10 minutes)

About weather observations | Map of weather stations | Latest weather observations for QLD | Other Formats
Station Details ID: 033317 Name: HAY POINT Lat: -21.29 Lon: 149.30 Height: 7.0 m
Data from the previous 72 hours. | See also: Recent months for locations in Queensland
Date/Time
EST
Temp
°C
App
Temp
°C
Dew
Point
Rel
Hum
%
Delta-T
°C
Wind Press
QNH
hPa
Press
MSL
hPa
Rain
since 9 am
mm
Dir
 
Spd
km/h
Gust
km/h
Spd
kts
Gust
kts
25/05:30pm - - - - - SE 20 28 11 15 - - -
25/05:00pm - - - - - SSE 19 26 10 14 - - -
25/04:30pm - - - - - SE 17 26 9 14 - - -
25/04:00pm - - - - - SE 22 30 12 16 - - -
25/03:30pm - - - - - SSE 20 28 11 15 - - -
25/03:00pm - - - - - SSE 22 30 12 16 - - -
25/02:30pm - - - - - SSE 19 26 10 14 - - -
25/02:00pm - - - - - SSE 22 30 12 16 - - -
25/01:30pm - - - - - SSE 26 32 14 17 - - -
25/01:00pm - - - - - SSE 26 33 14 18 - - -
25/12:30pm - - - - - SSE 28 32 15 17 - - -
25/12:00pm - - - - - S 28 32 15 17 - - -
25/11:30am - - - - - S 22 30 12 16 - - -
25/11:00am - - - - - S 26 30 14 16 - - -
25/10:30am - - - - - SSE 26 30 14 16 - - -
25/10:00am - - - - - S 24 30 13 16 - - -
25/09:30am - - - - - S 20 26 11 14 - - -
25/09:00am - - - - - S 20 26 11 14 - - -
25/08:30am - - - - - S 17 22 9 12 - - -
25/08:00am - - - - - SSW 15 19 8 10 - - -
25/07:30am - - - - - SW 15 19 8 10 - - -
25/07:00am - - - - - SSW 17 22 9 12 - - -
25/06:30am - - - - - SW 17 19 9 10 - - -
25/06:00am - - - - - S 15 20 8 11 - - -
25/05:30am - - - - - SSW 19 24 10 13 - - -
25/05:00am - - - - - SSW 15 19 8 10 - - -
25/04:30am - - - - - SSW 15 20 8 11 - - -
25/04:00am - - - - - SSW 15 19 8 10 - - -
25/03:30am - - - - - SW 13 17 7 9 - - -
25/03:00am - - - - - S 15 17 8 9 - - -
25/02:30am - - - - - SSW 7 9 4 5 - - -
25/02:00am - - - - - S 11 15 6 8 - - -
25/01:30am - - - - - SW 11 11 6 6 - - -
25/01:00am - - - - - SSW 13 17 7 9 - - -
25/12:30am - - - - - SW 9 11 5 6 - - -
25/12:00am - - - - - WSW 22 28 12 15 - - -
 
Date/Time
EST
Temp
°C
App
Temp
°C
Dew
Point
Rel
Hum
%
Delta-T
°C
Wind Press
QNH
hPa
Press
MSL
hPa
Rain
since 9 am
mm
Dir
 
Spd
km/h
Gust
km/h
Spd
kts
Gust
kts
24/11:30pm - - - - - WSW 15 19 8 10 - - -
24/11:00pm - - - - - SW 11 17 6 9 - - -
24/10:30pm - - - - - W 9 13 5 7 - - -
24/10:00pm - - - - - SSW 13 17 7 9 - - -
24/09:30pm - - - - - SW 17 20 9 11 - - -
24/09:00pm - - - - - SSW 19 22 10 12 - - -
24/08:30pm - - - - - SSW 19 22 10 12 - - -
24/08:00pm - - - - - SW 20 28 11 15 - - -
24/07:30pm - - - - - SW 28 32 15 17 - - -
24/07:00pm - - - - - SW 17 22 9 12 - - -
24/06:30pm - - - - - SSW 13 15 7 8 - - -
24/06:00pm - - - - - S 15 19 8 10 - - -
24/05:30pm - - - - - S 19 22 10 12 - - -
24/05:00pm - - - - - ESE 26 32 14 17 - - -
24/04:30pm - - - - - ESE 26 30 14 16 - - -
24/04:00pm - - - - - ESE 26 30 14 16 - - -
24/03:30pm - - - - - E 24 28 13 15 - - -
24/03:00pm - - - - - SSE 26 32 14 17 - - -
24/02:30pm - - - - - S 32 35 17 19 - - -
24/02:00pm - - - - - S 32 33 17 18 - - -
24/01:30pm - - - - - S 28 33 15 18 - - -
24/01:00pm - - - - - S 20 26 11 14 - - -
24/12:30pm - - - - - S 24 32 13 17 - - -
24/12:00pm - - - - - S 24 32 13 17 - - -
24/11:30am - - - - - SSE 20 26 11 14 - - -
24/11:00am - - - - - SSW 17 22 9 12 - - -
24/10:30am - - - - - SW 24 30 13 16 - - -
24/10:00am - - - - - SW 20 26 11 14 - - -
24/09:30am - - - - - SW 22 28 12 15 - - -
24/09:00am - - - - - SE 17 24 9 13 - - -
24/08:30am - - - - - ESE 22 28 12 15 - - -
24/08:00am - - - - - SSE 22 28 12 15 - - -
24/07:30am - - - - - SE 28 33 15 18 - - -
24/07:00am - - - - - ESE 28 35 15 19 - - -
24/06:30am - - - - - SE 20 26 11 14 - - -
24/06:00am - - - - - E 22 26 12 14 - - -
24/05:30am - - - - - E 30 33 16 18 - - -
24/05:00am - - - - - ESE 30 33 16 18 - - -
24/04:30am - - - - - S 28 35 15 19 - - -
24/04:00am - - - - - S 13 19 7 10 - - -
24/03:30am - - - - - SW 17 19 9 10 - - -
24/03:00am - - - - - SW 13 17 7 9 - - -
24/02:30am - - - - - NNW 2 7 1 4 - - -
24/02:00am - - - - - WNW 11 17 6 9 - - -
24/01:30am - - - - - WSW 13 19 7 10 - - -
24/01:00am - - - - - SW 17 19 9 10 - - -
24/12:30am - - - - - SSW 19 26 10 14 - - -
24/12:00am - - - - - SSE 20 30 11 16 - - -
 
Date/Time
EST
Temp
°C
App
Temp
°C
Dew
Point
Rel
Hum
%
Delta-T
°C
Wind Press
QNH
hPa
Press
MSL
hPa
Rain
since 9 am
mm
Dir
 
Spd
km/h
Gust
km/h
Spd
kts
Gust
kts
23/11:30pm - - - - - SSE 24 32 13 17 - - -
23/11:00pm - - - - - S 15 19 8 10 - - -
23/10:30pm - - - - - S 15 19 8 10 - - -
23/10:00pm - - - - - SSE 26 32 14 17 - - -
23/09:30pm - - - - - SSE 22 30 12 16 - - -
23/09:00pm - - - - - SSW 22 30 12 16 - - -
23/08:30pm - - - - - S 35 41 19 22 - - -
23/08:00pm - - - - - SSE 33 41 18 22 - - -
23/07:30pm - - - - - SSE 33 41 18 22 - - -
23/07:00pm - - - - - SSE 32 39 17 21 - - -
23/06:30pm - - - - - SSE 37 44 20 24 - - -
23/06:00pm - - - - - SSE 39 46 21 25 - - -
23/05:30pm - - - - - SSE 41 48 22 26 - - -
23/05:00pm - - - - - S 26 33 14 18 - - -
23/04:30pm - - - - - S 28 33 15 18 - - -
23/04:00pm - - - - - S 28 33 15 18 - - -
23/03:30pm - - - - - S 28 37 15 20 - - -
23/03:00pm - - - - - SSW 26 33 14 18 - - -
23/02:30pm - - - - - SSW 30 35 16 19 - - -
23/02:00pm - - - - - SSW 32 41 17 22 - - -
23/01:30pm - - - - - SSW 32 43 17 23 - - -
23/01:00pm - - - - - SSW 30 41 16 22 - - -
23/12:30pm - - - - - SSW 28 35 15 19 - - -
23/12:00pm - - - - - SSW 24 32 13 17 - - -
23/11:30am - - - - - S 28 37 15 20 - - -
23/11:00am - - - - - S 32 37 17 20 - - -
23/10:30am - - - - - SSE 35 43 19 23 - - -
23/10:00am - - - - - S 30 35 16 19 - - -
23/09:30am - - - - - S 24 33 13 18 - - -
23/09:00am - - - - - S 32 39 17 21 - - -
23/08:30am - - - - - SSW 26 33 14 18 - - -
23/08:00am - - - - - S 17 28 9 15 - - -
23/07:30am - - - - - SE 30 35 16 19 - - -
23/07:00am - - - - - ESE 30 37 16 20 - - -
23/06:30am - - - - - S 19 26 10 14 - - -
23/06:00am - - - - - S 20 28 11 15 - - -
23/05:30am - - - - - SSW 26 32 14 17 - - -
23/05:00am - - - - - S 17 26 9 14 - - -
23/04:30am - - - - - SSW 20 24 11 13 - - -
23/04:00am - - - - - SSW 24 30 13 16 - - -
23/03:30am - - - - - SSW 19 22 10 12 - - -
23/03:00am - - - - - SE 22 30 12 16 - - -
23/02:30am - - - - - SE 26 32 14 17 - - -
23/02:00am - - - - - ESE 26 33 14 18 - - -
23/01:30am - - - - - ESE 30 37 16 20 - - -
23/01:00am - - - - - SE 24 30 13 16 - - -
23/12:30am - - - - - SE 26 33 14 18 - - -
23/12:00am - - - - - SE 26 33 14 18 - - -
 
Date/Time
EST
Temp
°C
App
Temp
°C
Dew
Point
Rel
Hum
%
Delta-T
°C
Wind Press
QNH
hPa
Press
MSL
hPa
Rain
since 9 am
mm
Dir
 
Spd
km/h
Gust
km/h
Spd
kts
Gust
kts
22/11:30pm - - - - - SE 22 30 12 16 - - -
22/11:00pm - - - - - SSE 20 30 11 16 - - -
22/10:30pm - - - - - SE 20 30 11 16 - - -
22/10:00pm - - - - - SE 22 28 12 15 - - -
22/09:30pm - - - - - ESE 26 32 14 17 - - -
22/09:00pm - - - - - SE 19 26 10 14 - - -
22/08:30pm - - - - - ESE 24 28 13 15 - - -
22/08:00pm - - - - - ESE 24 30 13 16 - - -
22/07:30pm - - - - - E 26 32 14 17 - - -
22/07:00pm - - - - - E 28 32 15 17 - - -
22/06:30pm - - - - - E 24 30 13 16 - - -
22/06:00pm - - - - - E 22 26 12 14 - - -

Other Formats:

Comma delimited format used in spreadsheet applications
http://www.bom.gov.au/fwo/IDQ60801/IDQ60801.99367.axf

JavaScript Object Notation format (JSON) in row-major order
http://www.bom.gov.au/fwo/IDQ60801/IDQ60801.99367.json